Time;durP1;ratioP1;P1;durP2;ratioP2;P2;SDS_P1;SDS_P2;PMS_P1;PMS_P2;Temp;Humidity;BMP_temperature;BMP_pressure;BME280_temperature;BME280_humidity;BME280_pressure;Samples;Min_cycle;Max_cycle;Signal;HPM_P1;HPM_P2
2022/06/21 00:00:37;;;;;;;2.33;2.23;;;17.50;99.90;;;;;;4971173;28;20526;-72
2022/06/21 00:03:06;;;;;;;2.30;2.10;;;17.30;99.90;;;;;;4970185;28;20542;-72
2022/06/21 00:05:37;;;;;;;2.50;2.30;;;17.30;99.90;;;;;;4975815;28;20815;-70
2022/06/21 00:08:05;;;;;;;1.90;1.80;;;17.30;99.90;;;;;;4969130;28;20503;-71
2022/06/21 00:10:40;;;;;;;2.70;2.50;;;17.30;99.90;;;;;;4970882;28;20940;-71
2022/06/21 00:13:18;;;;;;;2.03;1.93;;;17.30;99.90;;;;;;4977208;28;20945;-70
2022/06/21 00:15:47;;;;;;;2.10;2.00;;;17.30;99.90;;;;;;4968677;28;20450;-71
2022/06/21 00:18:18;;;;;;;1.90;1.80;;;17.30;99.90;;;;;;4970398;28;20448;-69
2022/06/21 00:20:45;;;;;;;2.00;1.87;;;17.30;99.90;;;;;;4970018;28;20550;-71
2022/06/21 00:23:13;;;;;;;2.17;2.00;;;17.30;99.90;;;;;;4969893;28;20463;-71
2022/06/21 00:25:39;;;;;;;2.27;2.17;;;17.30;99.90;;;;;;4969770;28;20440;-71
2022/06/21 00:28:04;;;;;;;2.40;2.20;;;17.50;99.90;;;;;;4969935;28;20570;-69
2022/06/21 00:30:30;;;;;;;2.10;2.00;;;17.50;99.90;;;;;;4971279;28;20650;-71
2022/06/21 00:32:57;;;;;;;2.07;1.97;;;17.50;99.90;;;;;;4969728;28;20187;-70
2022/06/21 00:35:24;;;;;;;2.90;2.70;;;17.50;99.90;;;;;;4972622;28;20459;-70
2022/06/21 00:37:51;;;;;;;2.60;1.83;;;17.50;99.90;;;;;;4968780;28;20448;-71
2022/06/21 00:40:28;;;;;;;3.10;2.73;;;17.50;99.90;;;;;;4978832;28;20516;-71
2022/06/21 00:43:01;;;;;;;2.70;2.10;;;17.50;99.90;;;;;;4974236;28;20441;-70
2022/06/21 00:45:31;;;;;;;2.30;2.20;;;17.70;99.90;;;;;;4973352;28;20448;-71
2022/06/21 00:48:09;;;;;;;5.20;2.67;;;17.50;99.90;;;;;;4973216;28;20546;-71
2022/06/21 00:50:40;;;;;;;2.53;2.33;;;17.60;99.90;;;;;;4971545;28;20467;-71
2022/06/21 00:53:26;;;;;;;2.00;1.90;;;17.50;99.90;;;;;;4972383;28;20809;-71
2022/06/21 00:56:24;;;;;;;2.13;2.03;;;17.40;99.90;;;;;;4973446;28;20805;-71
2022/06/21 00:58:50;;;;;;;4.67;2.60;;;17.50;99.90;;;;;;4973811;28;20466;-71
2022/06/21 01:01:25;;;;;;;2.90;2.67;;;17.50;99.90;;;;;;4971845;28;20952;-71
2022/06/21 01:04:10;;;;;;;2.50;2.30;;;17.50;99.90;;;;;;4971706;28;20200;-75
2022/06/21 01:06:39;;;;;;;2.73;2.53;;;17.50;99.90;;;;;;4974737;28;20435;-71
2022/06/21 01:09:20;;;;;;;2.70;2.60;;;17.50;99.90;;;;;;4977616;28;20462;-69
2022/06/21 01:11:57;;;;;;;2.67;2.47;;;17.60;99.90;;;;;;4972415;28;20447;-70
2022/06/21 01:14:24;;;;;;;2.83;2.60;;;17.60;99.90;;;;;;4973096;28;20455;-71
2022/06/21 01:16:50;;;;;;;2.43;2.33;;;17.50;99.90;;;;;;4972176;28;20440;-71
2022/06/21 01:19:35;;;;;;;2.03;1.90;;;17.50;99.90;;;;;;4971641;28;20444;-71
2022/06/21 01:22:13;;;;;;;2.90;2.70;;;17.60;99.90;;;;;;4973489;28;20438;-71
2022/06/21 01:24:55;;;;;;;2.27;2.17;;;17.60;99.90;;;;;;4971416;28;20546;-71
2022/06/21 01:27:20;;;;;;;2.47;2.27;;;17.50;99.90;;;;;;4974298;28;20446;-71
2022/06/21 01:29:47;;;;;;;1.80;1.70;;;17.50;99.90;;;;;;4974480;28;20431;-68
2022/06/21 01:32:13;;;;;;;2.30;2.00;;;17.50;99.90;;;;;;4972782;28;20188;-70
2022/06/21 01:34:39;;;;;;;2.07;1.97;;;17.50;99.90;;;;;;4971664;28;20463;-71
2022/06/21 01:37:10;;;;;;;2.60;2.50;;;17.50;99.90;;;;;;4975985;28;20926;-68
2022/06/21 01:39:49;;;;;;;2.57;2.10;;;17.50;99.90;;;;;;4971543;28;20439;-68
2022/06/21 01:42:21;;;;;;;2.73;2.53;;;17.50;99.90;;;;;;4972093;28;20431;-71
2022/06/21 01:44:52;;;;;;;2.27;2.17;;;17.30;99.90;;;;;;4972253;28;20459;-71
2022/06/21 01:47:24;;;;;;;2.60;2.50;;;17.10;99.90;;;;;;4972420;28;20471;-71
2022/06/21 01:49:56;;;;;;;2.40;2.20;;;16.90;99.90;;;;;;4971858;28;20447;-71
2022/06/21 01:52:24;;;;;;;3.50;2.60;;;16.80;99.90;;;;;;4974842;28;20431;-70
2022/06/21 01:54:56;;;;;;;2.73;2.53;;;16.80;99.90;;;;;;4972346;28;20458;-70
2022/06/21 01:57:22;;;;;;;4.80;3.17;;;16.70;99.90;;;;;;4970709;28;20475;-71
2022/06/21 01:59:51;;;;;;;2.77;2.17;;;16.50;99.90;;;;;;4971632;28;20436;-71
2022/06/21 02:02:24;;;;;;;2.27;1.90;;;16.40;99.90;;;;;;4975695;28;20485;-71
2022/06/21 02:04:55;;;;;;;2.60;2.40;;;16.40;99.90;;;;;;4981023;28;20466;-71
2022/06/21 02:07:25;;;;;;;2.80;2.60;;;16.40;99.90;;;;;;4971288;28;20436;-70
2022/06/21 02:10:11;;;;;;;2.43;2.33;;;16.50;99.90;;;;;;4972668;28;20440;-71
2022/06/21 02:12:53;;;;;;;3.10;2.30;;;16.50;99.90;;;;;;4972284;28;20431;-67
2022/06/21 02:15:50;;;;;;;2.63;2.20;;;16.50;99.90;;;;;;4971753;28;20428;-70
2022/06/21 02:18:18;;;;;;;2.00;1.90;;;16.40;99.90;;;;;;4963420;28;20949;-71
2022/06/21 02:21:15;;;;;;;2.90;2.70;;;16.20;99.90;;;;;;4972200;28;20447;-70
2022/06/21 02:23:41;;;;;;;2.40;2.20;;;16.10;99.90;;;;;;4971362;28;20510;-71
2022/06/21 02:26:08;;;;;;;3.33;2.67;;;16.00;99.90;;;;;;4971511;28;20448;-71
2022/06/21 02:28:34;;;;;;;2.67;2.47;;;15.80;99.90;;;;;;4983684;28;20477;-70
2022/06/21 02:31:00;;;;;;;2.73;2.53;;;15.70;99.90;;;;;;4970551;28;20945;-70
2022/06/21 02:33:32;;;;;;;4.10;2.20;;;15.70;99.90;;;;;;4971761;28;20526;-71
2022/06/21 02:36:06;;;;;;;2.83;2.53;;;15.80;99.90;;;;;;4971452;28;20442;-71
2022/06/21 02:38:43;;;;;;;2.53;2.33;;;15.80;99.90;;;;;;4970954;28;20445;-71
2022/06/21 02:41:13;;;;;;;2.37;2.17;;;15.80;99.90;;;;;;4972627;28;20488;-70
2022/06/21 02:43:46;;;;;;;3.20;2.87;;;15.80;99.90;;;;;;4968197;28;20471;-71
2022/06/21 02:46:20;;;;;;;2.43;2.23;;;16.00;99.90;;;;;;4971513;28;20447;-69
2022/06/21 02:49:03;;;;;;;2.80;2.57;;;16.00;99.90;;;;;;4971835;28;20985;-70
2022/06/21 02:51:35;;;;;;;2.97;2.73;;;16.00;99.90;;;;;;4973364;28;20436;-71
2022/06/21 02:54:16;;;;;;;2.83;2.53;;;15.90;99.90;;;;;;4970000;28;20471;-70
2022/06/21 02:56:50;;;;;;;2.13;2.00;;;16.00;99.90;;;;;;4972007;28;20443;-71
2022/06/21 02:59:16;;;;;;;2.70;2.50;;;15.90;99.90;;;;;;4970509;28;20487;-68
2022/06/21 03:01:55;;;;;;;2.47;2.27;;;15.90;99.90;;;;;;4969977;28;20435;-70
2022/06/21 03:04:28;;;;;;;2.70;2.50;;;16.00;99.90;;;;;;4970946;28;20204;-71
2022/06/21 03:06:53;;;;;;;2.30;2.20;;;16.00;99.90;;;;;;4972894;28;20852;-70
2022/06/21 03:09:23;;;;;;;2.40;2.23;;;15.90;99.90;;;;;;4969986;28;20486;-71
2022/06/21 03:11:56;;;;;;;3.47;2.77;;;15.80;99.90;;;;;;4969257;28;20176;-71
2022/06/21 03:14:25;;;;;;;4.23;2.77;;;15.70;99.90;;;;;;4970258;28;20455;-69
2022/06/21 03:16:52;;;;;;;2.97;2.77;;;15.70;99.90;;;;;;4970750;28;20471;-70
2022/06/21 03:19:29;;;;;;;3.00;2.50;;;15.60;99.90;;;;;;4968191;28;21024;-71
2022/06/21 03:21:55;;;;;;;2.40;2.20;;;15.50;99.90;;;;;;4973304;28;20458;-71
2022/06/21 03:24:23;;;;;;;2.50;2.30;;;15.50;99.90;;;;;;4971244;28;20491;-68
2022/06/21 03:26:55;;;;;;;6.37;2.80;;;15.50;99.90;;;;;;4972964;28;20506;-71
2022/06/21 03:29:23;;;;;;;2.60;2.40;;;15.50;99.90;;;;;;4970506;28;21040;-71
2022/06/21 03:31:49;;;;;;;2.30;2.20;;;15.50;99.90;;;;;;4970352;28;20929;-71
2022/06/21 03:34:21;;;;;;;3.00;1.83;;;15.40;99.90;;;;;;4975599;28;20540;-69
2022/06/21 03:36:47;;;;;;;2.30;2.20;;;15.40;99.90;;;;;;4967974;28;20435;-71
2022/06/21 03:41:42;;;;;;;2.40;2.20;;;15.50;99.90;;;;;;4969137;28;20435;-70
2022/06/21 03:42:10;;;;;;;2.70;2.50;;;15.50;99.90;;;;;;4964642;28;20443;-71
2022/06/21 03:44:57;;;;;;;3.23;3.03;;;15.50;99.90;;;;;;4968803;28;20457;-71
2022/06/21 03:47:29;;;;;;;2.77;2.57;;;15.30;99.90;;;;;;4963359;28;20514;-71
2022/06/21 03:50:00;;;;;;;3.47;3.27;;;15.40;99.90;;;;;;4972652;28;20451;-69
2022/06/21 03:52:43;;;;;;;2.70;2.50;;;15.50;99.90;;;;;;4968498;28;20534;-70
2022/06/21 03:55:34;;;;;;;2.73;2.63;;;15.60;99.90;;;;;;4978192;28;20991;-70
2022/06/21 03:58:09;;;;;;;3.30;2.63;;;15.80;99.90;;;;;;4969096;28;20454;-70
2022/06/21 04:00:58;;;;;;;3.00;2.70;;;16.10;99.90;;;;;;4968658;28;20476;-71
2022/06/21 04:03:44;;;;;;;2.87;2.67;;;16.00;99.90;;;;;;4964353;28;20555;-71
2022/06/21 04:06:24;;;;;;;2.27;2.17;;;16.10;99.90;;;;;;4967886;28;20435;-71
2022/06/21 04:09:00;;;;;;;2.70;2.50;;;16.20;99.90;;;;;;4970296;28;20959;-71
2022/06/21 04:11:34;;;;;;;2.40;2.20;;;16.40;99.90;;;;;;4969565;28;20443;-70
2022/06/21 04:14:18;;;;;;;3.77;2.73;;;16.50;99.90;;;;;;4970545;28;20865;-71
2022/06/21 04:16:52;;;;;;;2.33;2.23;;;16.60;99.90;;;;;;4975214;28;20517;-70
2022/06/21 04:19:28;;;;;;;3.30;3.10;;;16.70;99.90;;;;;;4976839;28;20470;-70
2022/06/21 04:22:02;;;;;;;4.40;2.90;;;16.80;99.90;;;;;;4976990;28;20501;-70
2022/06/21 04:24:36;;;;;;;3.50;3.20;;;17.10;99.90;;;;;;4978269;28;20471;-71
2022/06/21 04:27:06;;;;;;;2.57;2.40;;;17.20;99.90;;;;;;4980594;28;20446;-69
2022/06/21 04:29:56;;;;;;;3.07;2.77;;;17.20;99.90;;;;;;4973965;28;20473;-71
2022/06/21 04:32:31;;;;;;;3.17;2.87;;;17.40;99.90;;;;;;4977054;28;20467;-69
2022/06/21 04:35:05;;;;;;;3.67;2.23;;;17.50;99.90;;;;;;4981539;28;20517;-71
2022/06/21 04:37:41;;;;;;;2.93;2.73;;;17.70;99.90;;;;;;4976862;28;20457;-70
2022/06/21 04:40:24;;;;;;;4.17;2.87;;;17.80;99.90;;;;;;4983076;28;20438;-71
2022/06/21 04:42:56;;;;;;;3.23;3.03;;;17.90;99.90;;;;;;4977807;28;20509;-70
2022/06/21 04:45:33;;;;;;;2.20;2.10;;;18.00;99.90;;;;;;4975942;28;20435;-71
2022/06/21 04:48:10;;;;;;;2.77;2.57;;;18.00;99.90;;;;;;4974412;28;20490;-71
2022/06/21 04:50:44;;;;;;;2.80;2.60;;;18.10;99.90;;;;;;4972506;28;20442;-71
2022/06/21 04:53:26;;;;;;;2.70;2.60;;;18.20;99.90;;;;;;4970890;28;20481;-71
2022/06/21 04:56:30;;;;;;;2.37;2.23;;;18.40;99.90;;;;;;4970483;28;20518;-70
2022/06/21 04:58:56;;;;;;;2.90;2.70;;;18.40;99.90;;;;;;4972633;28;20546;-71
2022/06/21 05:01:56;;;;;;;3.17;2.90;;;18.40;99.90;;;;;;4975139;28;20522;-71
2022/06/21 05:04:22;;;;;;;2.50;2.30;;;18.20;99.90;;;;;;4976945;28;20474;-71
2022/06/21 05:06:50;;;;;;;3.33;3.00;;;17.80;99.90;;;;;;4974032;28;20447;-70
2022/06/21 05:09:18;;;;;;;2.50;2.30;;;17.90;99.90;;;;;;4975741;28;20565;-70
2022/06/21 05:11:44;;;;;;;2.57;2.47;;;17.90;99.90;;;;;;4973101;28;20874;-71
2022/06/21 05:14:20;;;;;;;2.67;2.43;;;18.10;99.90;;;;;;4972635;28;21148;-70
2022/06/21 05:16:47;;;;;;;4.07;2.73;;;17.90;99.90;;;;;;4974284;28;20439;-71
2022/06/21 05:19:20;;;;;;;3.60;2.70;;;17.90;99.90;;;;;;4974620;28;20441;-70
2022/06/21 05:22:00;;;;;;;2.57;2.37;;;17.90;99.90;;;;;;4977244;28;20440;-71
2022/06/21 05:24:26;;;;;;;2.53;2.30;;;17.90;99.90;;;;;;4980045;28;20461;-70
2022/06/21 05:26:54;;;;;;;2.80;2.60;;;18.10;99.90;;;;;;4982949;28;20818;-70
2022/06/21 05:29:31;;;;;;;4.50;2.33;;;18.30;99.90;;;;;;4990358;28;20223;-70
2022/06/21 05:32:00;;;;;;;2.90;2.70;;;18.30;99.90;;;;;;4971824;28;20446;-70
2022/06/21 05:34:33;;;;;;;2.83;2.63;;;18.30;99.90;;;;;;4972417;28;20462;-70
2022/06/21 05:37:01;;;;;;;2.80;2.60;;;18.20;99.90;;;;;;4971707;28;20439;-71
2022/06/21 05:39:32;;;;;;;4.63;3.30;;;18.00;99.90;;;;;;4968769;28;20489;-69
2022/06/21 05:42:01;;;;;;;3.80;3.20;;;18.10;99.90;;;;;;4970438;28;20444;-70
2022/06/21 05:44:32;;;;;;;2.97;2.63;;;18.30;99.90;;;;;;4971632;28;20506;-70
2022/06/21 05:47:05;;;;;;;3.07;2.83;;;18.30;99.90;;;;;;4975903;28;20440;-70
2022/06/21 05:49:33;;;;;;;3.03;2.60;;;18.40;99.90;;;;;;4968192;28;20466;-67
2022/06/21 05:52:04;;;;;;;3.93;3.10;;;18.50;99.90;;;;;;4975526;28;20582;-66
2022/06/21 05:54:38;;;;;;;5.20;3.13;;;18.60;99.90;;;;;;4973261;28;20483;-69
2022/06/21 05:57:07;;;;;;;3.83;3.47;;;18.80;99.90;;;;;;4973910;28;20474;-70
2022/06/21 05:59:33;;;;;;;3.57;3.33;;;18.80;99.90;;;;;;4972644;28;20435;-69
2022/06/21 06:02:34;;;;;;;3.70;3.20;;;18.40;99.90;;;;;;4975423;28;20527;-68
2022/06/21 06:05:39;;;;;;;4.63;4.23;;;18.00;99.90;;;;;;4973542;28;20212;-67
2022/06/21 06:08:12;;;;;;;4.03;3.13;;;17.60;99.90;;;;;;4913780;29;21060;-66
2022/06/21 06:10:41;;;;;;;4.30;3.73;;;17.60;99.90;;;;;;4911702;29;20446;-67
2022/06/21 06:13:31;;;;;;;2.90;2.70;;;17.40;99.90;;;;;;4940167;28;21033;-67
2022/06/21 06:16:01;;;;;;;3.10;2.50;;;17.60;99.90;;;;;;4976150;28;20440;-67
2022/06/21 06:18:49;;;;;;;3.73;3.43;;;17.70;99.90;;;;;;4972130;28;20443;-68
2022/06/21 06:21:20;;;;;;;3.20;3.00;;;17.90;99.90;;;;;;4969510;28;20456;-67
2022/06/21 06:24:00;;;;;;;4.03;3.53;;;18.20;99.90;;;;;;4972443;28;20989;-67
2022/06/21 06:26:31;;;;;;;4.73;3.13;;;18.30;99.90;;;;;;4972877;28;20451;-66
2022/06/21 06:29:11;;;;;;;4.80;3.40;;;18.80;99.90;;;;;;4973884;28;21040;-66
2022/06/21 06:31:45;;;;;;;4.83;3.17;;;19.20;99.90;;;;;;4979350;28;20949;-66
2022/06/21 06:34:16;;;;;;;3.90;3.60;;;19.50;99.90;;;;;;4971275;28;20458;-67
2022/06/21 06:36:54;;;;;;;4.20;3.90;;;19.70;99.90;;;;;;4975023;28;20459;-67
2022/06/21 06:39:24;;;;;;;4.43;3.87;;;19.50;99.90;;;;;;4972066;28;20860;-67
2022/06/21 06:41:55;;;;;;;3.20;3.00;;;19.80;99.90;;;;;;4974236;28;20510;-67
2022/06/21 06:44:23;;;;;;;4.47;3.50;;;20.10;99.90;;;;;;4973466;28;20534;-66
2022/06/21 06:46:51;;;;;;;4.20;3.43;;;20.40;99.90;;;;;;4973878;28;20925;-66
2022/06/21 06:49:21;;;;;;;3.00;2.80;;;20.80;99.90;;;;;;4972481;28;21036;-66
2022/06/21 06:52:10;;;;;;;4.23;3.90;;;21.20;99.90;;;;;;4972759;28;20435;-66
2022/06/21 06:54:55;;;;;;;4.00;3.33;;;21.50;99.90;;;;;;4971886;28;20908;-66
2022/06/21 06:57:41;;;;;;;4.37;3.03;;;21.70;99.90;;;;;;4965864;28;20438;-66
2022/06/21 07:00:20;;;;;;;3.23;2.93;;;21.70;99.90;;;;;;4973485;28;20419;-66
2022/06/21 07:02:56;;;;;;;3.10;2.80;;;22.00;99.90;;;;;;4973772;28;20445;-66
2022/06/21 07:05:46;;;;;;;5.60;5.10;;;22.20;99.10;;;;;;4971259;28;20439;-66
2022/06/21 07:08:47;;;;;;;3.87;3.00;;;22.40;98.30;;;;;;4974409;28;20463;-66
2022/06/21 07:11:34;;;;;;;3.80;3.47;;;22.50;97.50;;;;;;4971673;28;20887;-66
2022/06/21 07:14:01;;;;;;;4.73;3.97;;;22.50;96.90;;;;;;4973496;28;20438;-66
2022/06/21 07:16:28;;;;;;;7.17;2.97;;;22.70;96.70;;;;;;4973506;28;20420;-66
2022/06/21 07:18:57;;;;;;;3.23;2.60;;;22.70;95.30;;;;;;4973007;28;20781;-66
2022/06/21 07:21:23;;;;;;;3.20;2.90;;;22.90;95.40;;;;;;4973423;28;20791;-66
2022/06/21 07:23:52;;;;;;;3.63;3.20;;;23.10;95.50;;;;;;4972923;28;20443;-66
2022/06/21 07:26:31;;;;;;;2.97;2.50;;;23.60;94.60;;;;;;4973267;28;20422;-66
2022/06/21 07:29:15;;;;;;;3.10;2.63;;;24.10;94.20;;;;;;4972931;28;20455;-66
2022/06/21 07:31:47;;;;;;;4.50;2.47;;;24.40;92.70;;;;;;4973209;28;20499;-66
2022/06/21 07:34:32;;;;;;;3.90;3.43;;;24.40;91.70;;;;;;4973126;28;20450;-66
2022/06/21 07:37:04;;;;;;;5.00;3.97;;;24.10;91.20;;;;;;4973258;28;20482;-66
2022/06/21 07:39:40;;;;;;;6.03;4.00;;;23.70;92.50;;;;;;4972801;28;20490;-66
2022/06/21 07:42:27;;;;;;;5.00;3.57;;;23.30;92.50;;;;;;4973105;28;20511;-66
2022/06/21 07:45:02;;;;;;;4.30;2.67;;;23.30;92.20;;;;;;4972939;28;20458;-66
2022/06/21 07:47:41;;;;;;;3.10;2.90;;;23.60;92.20;;;;;;4972458;28;20498;-66
2022/06/21 07:50:14;;;;;;;4.70;3.67;;;23.60;92.10;;;;;;4972743;28;20422;-66
2022/06/21 07:52:46;;;;;;;3.50;3.20;;;23.50;91.70;;;;;;4972839;28;20454;-66
2022/06/21 07:55:29;;;;;;;4.67;3.33;;;23.20;91.50;;;;;;4973044;28;20550;-66
2022/06/21 07:58:00;;;;;;;4.50;3.07;;;22.90;91.70;;;;;;4972876;28;20430;-66
2022/06/21 08:06:40;;;;;;;3.97;3.67;;;22.80;92.10;;;;;;4972805;28;20451;-66
2022/06/21 08:08:52;;;;;;;3.87;3.03;;;23.80;91.00;;;;;;4972257;28;20493;-66
2022/06/21 08:11:17;;;;;;;6.17;3.77;;;24.10;89.70;;;;;;4972963;28;20862;-66
2022/06/21 08:13:44;;;;;;;4.40;3.50;;;23.30;90.60;;;;;;4972681;28;20519;-66
2022/06/21 08:16:23;;;;;;;3.60;2.80;;;23.30;90.70;;;;;;4972782;28;20686;-66
2022/06/21 08:19:12;;;;;;;3.70;3.40;;;22.80;91.40;;;;;;4972527;28;20427;-66
2022/06/21 08:21:50;;;;;;;4.30;3.50;;;22.60;91.40;;;;;;4972904;28;20543;-66
2022/06/21 08:24:42;;;;;;;3.60;3.30;;;22.20;91.50;;;;;;4972389;28;20534;-66
2022/06/21 08:27:17;;;;;;;11.00;3.27;;;22.00;92.10;;;;;;4972745;28;20419;-66
2022/06/21 08:29:59;;;;;;;3.63;3.10;;;22.20;92.10;;;;;;4972385;28;20423;-66
2022/06/21 08:32:44;;;;;;;3.63;3.17;;;22.20;91.70;;;;;;4972826;28;20775;-66
2022/06/21 08:35:32;;;;;;;3.80;3.40;;;22.60;91.30;;;;;;4972592;28;20443;-66
2022/06/21 08:38:04;;;;;;;5.57;3.40;;;22.60;91.10;;;;;;4972594;28;20478;-66
2022/06/21 08:40:36;;;;;;;6.17;3.67;;;22.60;91.00;;;;;;4972368;28;20511;-66
2022/06/21 08:43:39;;;;;;;4.20;2.90;;;22.50;91.30;;;;;;4972544;28;20451;-66
2022/06/21 08:46:31;;;;;;;4.57;3.37;;;22.30;91.80;;;;;;4972676;28;20419;-66
2022/06/21 08:49:18;;;;;;;3.13;2.83;;;22.20;92.30;;;;;;4972192;28;20470;-66
2022/06/21 08:52:08;;;;;;;3.13;2.93;;;22.20;92.50;;;;;;4972416;28;20411;-66
2022/06/21 08:54:56;;;;;;;5.07;4.20;;;22.20;92.20;;;;;;4972222;28;20462;-66
2022/06/21 08:57:37;;;;;;;3.53;3.20;;;21.80;93.90;;;;;;4972353;28;20790;-66
2022/06/21 09:00:33;;;;;;;3.93;3.63;;;21.60;96.20;;;;;;4974059;28;20404;-66
2022/06/21 09:03:35;;;;;;;4.23;3.83;;;21.50;97.30;;;;;;4975925;28;20979;-66
2022/06/21 09:06:21;;;;;;;6.30;3.83;;;21.50;98.40;;;;;;4975765;28;20487;-66
2022/06/21 09:09:18;;;;;;;4.43;3.57;;;21.50;99.00;;;;;;4975483;28;20486;-66
2022/06/21 09:11:53;;;;;;;4.63;3.10;;;21.60;97.60;;;;;;4975838;28;20779;-66
2022/06/21 09:14:40;;;;;;;3.53;3.23;;;21.80;98.20;;;;;;4975675;28;20445;-66
2022/06/21 09:17:11;;;;;;;4.17;3.10;;;22.10;97.40;;;;;;4975674;28;20419;-66
2022/06/21 09:19:52;;;;;;;3.50;3.20;;;22.00;96.10;;;;;;4975370;28;20426;-66
2022/06/21 09:22:19;;;;;;;4.33;3.77;;;22.00;95.80;;;;;;4975405;28;20427;-66
2022/06/21 09:24:55;;;;;;;3.80;3.40;;;22.20;96.20;;;;;;4975103;28;20450;-66
2022/06/21 09:27:34;;;;;;;3.93;2.70;;;22.80;94.70;;;;;;4975580;28;20432;-66
2022/06/21 09:30:14;;;;;;;4.03;3.00;;;23.00;93.50;;;;;;4975131;28;20439;-66
2022/06/21 09:32:51;;;;;;;3.07;2.87;;;23.60;93.10;;;;;;4975391;28;20554;-66
2022/06/21 09:35:46;;;;;;;3.43;3.10;;;24.20;92.00;;;;;;4975356;28;20406;-66
2022/06/21 09:38:39;;;;;;;4.63;3.43;;;24.70;91.20;;;;;;4975001;28;20443;-66
2022/06/21 09:41:15;;;;;;;3.53;3.27;;;25.40;88.50;;;;;;4975198;28;20416;-66
2022/06/21 09:43:49;;;;;;;3.30;3.00;;;25.70;87.30;;;;;;4975171;28;20435;-66
2022/06/21 09:46:50;;;;;;;4.03;2.40;;;25.80;86.20;;;;;;4975120;28;20419;-66
2022/06/21 09:49:53;;;;;;;4.37;3.07;;;26.10;84.70;;;;;;4974752;28;20871;-66
2022/06/21 09:52:33;;;;;;;5.93;3.20;;;26.60;84.20;;;;;;4974919;28;20554;-66
2022/06/21 09:55:24;;;;;;;4.77;4.30;;;26.90;81.40;;;;;;4974858;28;20847;-66
2022/06/21 09:58:12;;;;;;;3.20;2.80;;;27.20;79.50;;;;;;4974978;28;20462;-66
2022/06/21 10:01:01;;;;;;;4.20;3.80;;;27.50;78.40;;;;;;4974998;28;20510;-66
2022/06/21 10:04:02;;;;;;;3.03;2.83;;;26.60;80.10;;;;;;4971867;28;20451;-66
2022/06/21 10:06:34;;;;;;;4.80;4.00;;;27.00;79.40;;;;;;4974687;28;20429;-66
2022/06/21 10:09:28;;;;;;;4.30;2.80;;;27.60;79.00;;;;;;4974354;28;20503;-66
2022/06/21 10:11:56;;;;;;;3.63;2.90;;;28.40;77.20;;;;;;4974397;28;20470;-66
2022/06/21 10:15:09;;;;;;;3.87;3.50;;;28.70;76.10;;;;;;4974533;28;20816;-66
2022/06/21 10:17:59;;;;;;;3.77;2.90;;;29.30;73.40;;;;;;4952930;29;20437;-66
2022/06/21 10:20:31;;;;;;;2.97;2.70;;;29.30;71.70;;;;;;4952708;29;20872;-66
2022/06/21 10:23:31;;;;;;;3.63;3.37;;;29.50;71.70;;;;;;4967271;28;20431;-66
2022/06/21 10:26:21;;;;;;;3.40;3.10;;;30.60;70.40;;;;;;4974445;28;20916;-67
2022/06/21 10:29:12;;;;;;;3.03;2.83;;;30.70;66.40;;;;;;4973978;28;21037;-66
2022/06/21 10:32:18;;;;;;;3.93;3.63;;;29.90;68.30;;;;;;4974411;28;20415;-67
2022/06/21 10:34:55;;;;;;;3.70;3.20;;;30.30;67.30;;;;;;4971341;28;20526;-67
2022/06/21 10:37:47;;;;;;;3.33;2.57;;;31.10;66.00;;;;;;4974270;28;20917;-67
2022/06/21 10:40:22;;;;;;;3.77;3.47;;;31.40;65.10;;;;;;4962851;28;20941;-67
2022/06/21 10:43:21;;;;;;;4.20;3.17;;;32.60;63.20;;;;;;4974242;28;20426;-66
2022/06/21 10:46:08;;;;;;;9.00;3.43;;;32.90;59.80;;;;;;4973854;28;20422;-66
2022/06/21 10:48:36;;;;;;;3.20;2.90;;;32.90;59.40;;;;;;4973673;28;20478;-67
2022/06/21 10:51:15;;;;;;;3.77;3.47;;;33.20;59.20;;;;;;4974042;28;20498;-67
2022/06/21 10:54:08;;;;;;;4.17;3.87;;;33.30;58.10;;;;;;4973692;28;20522;-67
2022/06/21 10:57:12;;;;;;;4.07;3.77;;;32.70;57.60;;;;;;4973995;28;20430;-67
2022/06/21 11:02:46;;;;;;;3.60;3.30;;;33.70;57.40;;;;;;4973883;28;20419;-67
2022/06/21 11:05:21;;;;;;;5.17;3.20;;;34.50;56.30;;;;;;4973830;28;20450;-67
2022/06/21 11:07:54;;;;;;;3.83;3.47;;;34.70;55.50;;;;;;4973703;28;20469;-67
2022/06/21 11:10:22;;;;;;;3.87;3.47;;;34.70;54.50;;;;;;4973420;28;20411;-67
2022/06/21 11:12:56;;;;;;;3.83;3.53;;;33.40;54.80;;;;;;4973527;28;20798;-67
2022/06/21 11:15:46;;;;;;;5.77;5.37;;;33.70;55.60;;;;;;4973668;28;20434;-67
2022/06/21 11:18:27;;;;;;;4.30;3.97;;;33.30;55.80;;;;;;4973290;28;20407;-67
2022/06/21 11:21:13;;;;;;;5.57;4.10;;;33.40;55.80;;;;;;4973481;28;20507;-67
2022/06/21 11:24:11;;;;;;;3.97;3.63;;;33.50;55.20;;;;;;4973048;28;20533;-67
2022/06/21 11:27:18;;;;;;;6.27;4.20;;;31.90;57.30;;;;;;4973396;28;20416;-66
2022/06/21 11:29:54;;;;;;;5.10;4.43;;;30.30;58.70;;;;;;4972957;28;20463;-66
2022/06/21 11:32:54;;;;;;;4.30;3.90;;;29.80;61.00;;;;;;4973291;28;20800;-66
2022/06/21 11:35:31;;;;;;;4.73;4.33;;;28.50;63.00;;;;;;4973218;28;20407;-66
2022/06/21 11:38:32;;;;;;;4.27;3.93;;;28.70;64.10;;;;;;4973221;28;20419;-66
2022/06/21 11:41:06;;;;;;;4.10;3.70;;;29.40;63.30;;;;;;4973297;28;20435;-66
2022/06/21 11:44:00;;;;;;;4.33;4.00;;;29.90;62.10;;;;;;4973136;28;20509;-66
2022/06/21 11:46:40;;;;;;;3.93;3.63;;;29.50;63.60;;;;;;4972299;28;20809;-67
2022/06/21 11:49:33;;;;;;;4.37;4.07;;;30.60;62.50;;;;;;4972958;28;20552;-67
2022/06/21 11:52:36;;;;;;;4.00;3.70;;;32.40;59.90;;;;;;4973030;28;20932;-67
2022/06/21 11:55:22;;;;;;;4.47;4.03;;;32.20;59.00;;;;;;4972947;28;20447;-67
2022/06/21 11:57:52;;;;;;;4.70;4.30;;;31.80;59.60;;;;;;4962027;28;20434;-67
2022/06/21 12:00:32;;;;;;;4.70;4.27;;;31.00;60.10;;;;;;4972654;28;20466;-66
2022/06/21 12:02:59;;;;;;;4.50;4.10;;;30.10;63.10;;;;;;4972944;28;20841;-67
2022/06/21 12:05:49;;;;;;;4.83;4.10;;;29.60;64.30;;;;;;4973069;28;20497;-67
2022/06/21 12:08:21;;;;;;;4.97;4.53;;;29.60;64.50;;;;;;4972591;28;20549;-67
2022/06/21 12:10:55;;;;;;;4.60;4.30;;;29.70;64.50;;;;;;4972841;28;20422;-66
2022/06/21 12:13:23;;;;;;;4.37;3.97;;;30.50;63.50;;;;;;4972999;28;20439;-67
2022/06/21 12:16:01;;;;;;;4.60;4.17;;;31.50;62.40;;;;;;4972872;28;20422;-67
2022/06/21 12:18:31;;;;;;;4.60;4.27;;;32.40;60.70;;;;;;4972553;28;20419;-67
2022/06/21 12:21:28;;;;;;;6.13;4.37;;;31.90;60.70;;;;;;4972820;28;20506;-66
2022/06/21 12:23:58;;;;;;;8.33;4.30;;;31.90;61.20;;;;;;4968406;28;20478;-66
2022/06/21 12:26:26;;;;;;;4.67;4.27;;;31.50;61.80;;;;;;4972822;28;20423;-67
2022/06/21 12:28:55;;;;;;;4.67;3.90;;;32.20;61.90;;;;;;4972423;28;20471;-66
2022/06/21 12:31:37;;;;;;;4.93;4.63;;;32.30;60.10;;;;;;4972649;28;20498;-67
2022/06/21 12:34:11;;;;;;;4.43;4.13;;;31.50;61.60;;;;;;4974640;28;20466;-66
2022/06/21 12:36:42;;;;;;;5.10;4.67;;;30.70;63.30;;;;;;4976504;28;20443;-66
2022/06/21 12:39:40;;;;;;;4.60;4.20;;;29.70;65.40;;;;;;4976275;28;20955;-66
2022/06/21 12:42:21;;;;;;;4.70;4.30;;;28.80;67.50;;;;;;4973197;28;20447;-66
2022/06/21 12:45:07;;;;;;;5.00;4.60;;;28.40;68.60;;;;;;4976741;28;20497;-67
2022/06/21 12:47:44;;;;;;;4.93;4.53;;;28.00;70.40;;;;;;4976312;28;20539;-67
2022/06/21 12:50:16;;;;;;;6.00;5.50;;;28.00;71.20;;;;;;4976026;28;20818;-67
2022/06/21 12:52:55;;;;;;;5.50;5.10;;;28.10;70.90;;;;;;4976036;28;20522;-67
2022/06/21 12:55:23;;;;;;;5.67;5.17;;;28.20;71.60;;;;;;4976257;28;20505;-67
2022/06/21 12:58:09;;;;;;;5.40;4.90;;;28.50;71.50;;;;;;4976170;28;20426;-67
2022/06/21 13:00:55;;;;;;;5.63;4.60;;;29.20;70.90;;;;;;4975925;28;20510;-67
2022/06/21 13:03:59;;;;;;;5.00;4.70;;;31.50;67.30;;;;;;4975855;28;20449;-68
2022/06/21 13:06:51;;;;;;;6.00;5.50;;;34.20;61.80;;;;;;4965809;28;20435;-67
2022/06/21 13:09:49;;;;;;;5.40;4.90;;;35.90;58.50;;;;;;4975514;28;20459;-68
2022/06/21 13:12:35;;;;;;;7.57;5.80;;;37.40;55.90;;;;;;4966964;28;20880;-68
2022/06/21 13:15:10;;;;;;;5.97;4.80;;;37.30;55.10;;;;;;4975663;28;20438;-68
2022/06/21 13:18:02;;;;;;;5.13;4.77;;;38.50;54.70;;;;;;4975771;28;20490;-68
2022/06/21 13:20:35;;;;;;;8.67;5.13;;;38.60;53.00;;;;;;4975222;28;20424;-68
2022/06/21 13:23:20;;;;;;;4.80;4.50;;;38.30;52.80;;;;;;4975636;28;20498;-67
2022/06/21 13:26:08;;;;;;;4.60;4.30;;;37.50;53.30;;;;;;4975352;28;20565;-68
2022/06/21 13:29:21;;;;;;;5.57;5.17;;;36.60;53.90;;;;;;4975500;28;20869;-67
2022/06/21 13:31:53;;;;;;;5.60;5.20;;;34.60;55.90;;;;;;4975315;28;20830;-68
2022/06/21 13:34:35;;;;;;;6.20;5.70;;;35.10;56.40;;;;;;4975298;28;20443;-68
2022/06/21 13:37:13;;;;;;;10.03;5.80;;;35.10;55.90;;;;;;4975343;28;21003;-68
2022/06/21 13:40:05;;;;;;;6.47;5.47;;;33.90;56.90;;;;;;4975038;28;20842;-67
2022/06/21 13:43:11;;;;;;;6.87;5.80;;;33.10;57.90;;;;;;4975112;28;20737;-68
2022/06/21 13:45:38;;;;;;;7.30;5.67;;;33.10;58.10;;;;;;4952809;28;21066;-67
2022/06/21 13:48:28;;;;;;;6.23;5.60;;;33.10;58.60;;;;;;4953432;29;20511;-68
2022/06/21 13:51:12;;;;;;;6.93;6.40;;;33.00;58.90;;;;;;4967610;28;20428;-67
2022/06/21 13:53:48;;;;;;;5.90;5.40;;;32.30;59.60;;;;;;4974829;28;20463;-67